Latest Weather Observations for Portland Airport

IDV60801

Issued at 4:42 am EST Wednesday 17 July 2019 (issued every 10 minutes, with the page automatically refreshed every 10 minutes)

About weather observations | Map of weather stations | Latest weather observations for VIC | Other Formats
Station Details ID: 090171 Name: CASHMORE AIRPORT Lat: -38.31 Lon: 141.47 Height: 80.9 m
Data from the previous 72 hours. | See also: Recent months at Portland Airport
Date/Time
EST
Temp
°C
App
Temp
°C
Dew
Point
°C
Rel
Hum
%
Delta-T
°C
Wind Press
QNH
hPa
Press
MSL
hPa
Rain since
9am
mm
Dir  Spd
km/h
Gust
km/h
Spd
kts
Gust
kts
17/04:30am 11.0 4.2 6.9 76 1.9 W 32 44 17 24 1017.7 1017.8 0.8
17/04:00am 11.0 4.0 6.9 76 1.9 W 33 46 18 25 1018.2 1018.3 0.8
17/03:30am 10.9 4.0 7.2 78 1.8 W 33 46 18 25 1018.5 1018.6 0.8
17/03:00am 10.3 4.4 7.4 82 1.4 W 28 37 15 20 1019.1 1019.2 0.8
17/02:30am 10.5 4.6 7.6 82 1.4 W 28 37 15 20 1019.5 1019.6 0.8
17/02:00am 10.3 4.8 7.4 82 1.4 W 26 35 14 19 1019.8 1019.9 0.6
17/01:30am 10.6 4.7 7.5 81 1.5 W 28 43 15 23 1020.3 1020.4 0.6
17/01:00am 10.0 5.8 7.4 84 1.2 WNW 19 30 10 16 1020.6 1020.7 0.6
17/12:30am 10.0 5.8 7.3 83 1.3 NW 19 30 10 16 1020.8 1020.9 0.6
17/12:00am 10.9 5.2 6.6 75 2.0 WNW 26 35 14 19 1021.3 1021.5 0.6
 
Date/Time
EST
Temp
°C
App
Temp
°C
Dew
Point
°C
Rel
Hum
%
Delta-T
°C
Wind Press
QNH
hPa
Press
MSL
hPa
Rain since
9am
mm
Dir  Spd
km/h
Gust
km/h
Spd
kts
Gust
kts
16/11:30pm 10.3 5.8 7.0 80 1.6 WNW 20 32 11 17 1021.6 1021.8 0.6
16/11:00pm 10.9 4.6 5.7 70 2.4 W 28 41 15 22 1021.6 1021.8 0.6
16/10:30pm 10.9 5.2 6.6 75 2.0 WNW 26 39 14 21 1022.0 1022.2 0.6
16/10:00pm 10.8 5.4 6.2 73 2.1 W 24 35 13 19 1022.1 1022.3 0.6
16/09:30pm 11.0 5.6 6.2 72 2.3 W 24 33 13 18 1022.3 1022.5 0.6
16/09:00pm 10.9 5.9 6.6 75 2.0 W 22 32 12 17 1022.6 1022.8 0.6
16/08:30pm 10.8 6.2 6.6 75 2.0 W 20 32 11 17 1023.0 1023.2 0.6
16/08:00pm 10.8 5.8 6.6 75 2.0 W 22 30 12 16 1023.3 1023.5 0.6
16/07:30pm 10.7 5.3 6.5 75 2.0 W 24 32 13 17 1023.6 1023.8 0.6
16/07:00pm 10.8 5.6 7.3 79 1.7 W 24 35 13 19 1023.6 1023.8 0.6
16/06:30pm 10.5 6.2 7.7 83 1.4 WNW 20 28 11 15 1023.6 1023.8 0.6
16/06:00pm 10.2 5.4 7.4 83 1.3 W 22 28 12 15 1023.4 1023.6 0.6
16/05:30pm 10.6 6.3 8.0 84 1.3 W 20 26 11 14 1023.5 1023.7 0.6
16/05:00pm 11.3 7.2 8.5 83 1.4 W 20 28 11 15 1023.5 1023.7 0.6
16/04:30pm 10.8 6.6 8.4 85 1.2 WSW 20 26 11 14 1023.6 1023.8 0.6
16/04:00pm 11.3 6.2 9.2 87 1.0 W 26 35 14 19 1023.7 1023.9 0.4
16/03:35pm 11.1 6.8 9.2 88 1.0 W 22 30 12 16 1023.6 1023.8 0.4
16/03:30pm 11.0 6.3 9.1 88 0.9 WSW 24 32 13 17 1023.7 1023.9 0.4
16/03:23pm 10.9 5.7 9.0 88 0.9 WSW 26 37 14 20 1023.7 1023.9 0.4
16/03:16pm 10.9 6.5 9.0 88 0.9 WSW 22 35 12 19 1023.8 1024.0 0.4
16/03:01pm 11.1 6.8 9.2 88 1.0 W 22 30 12 16 1023.7 1023.9 0.4
16/03:00pm 11.1 6.8 9.2 88 0.9 W 22 30 12 16 1023.7 1023.9 0.4
16/02:46pm 11.1 5.6 9.0 87 1.0 W 28 35 15 19 1023.6 1023.8 0.4
16/02:39pm 11.1 5.6 9.0 87 1.0 WSW 28 35 15 19 1023.7 1023.9 0.4
16/02:30pm 11.2 6.8 9.1 87 1.1 W 22 33 12 18 1023.7 1023.9 0.4
16/02:28pm 11.2 6.8 9.1 87 1.1 W 22 28 12 15 1023.7 1023.9 0.4
16/02:23pm 11.1 6.7 9.0 87 1.0 W 22 30 12 16 1023.8 1024.0 0.2
16/02:00pm 11.1 5.9 8.8 86 1.1 WSW 26 35 14 19 1023.9 1024.1 0.2
16/01:47pm 11.3 6.9 9.0 86 1.1 W 22 30 12 16 1023.9 1024.1 0.2
16/01:30pm 11.5 6.3 8.9 84 1.3 W 26 35 14 19 1024.2 1024.4 0.2
16/01:00pm 12.2 6.4 9.6 84 1.3 W 30 35 16 19 1024.5 1024.7 0.2
16/12:30pm 11.8 6.8 9.4 85 1.2 W 26 35 14 19 1024.8 1025.0 0.2
16/12:15pm 12.2 7.0 10.1 87 1.1 W 28 35 15 19 1024.9 1025.1 0.2
16/12:00pm 11.8 6.5 9.9 88 1.0 W 28 35 15 19 1025.0 1025.2 0.2
16/11:59am 11.6 6.2 9.5 87 1.1 W 28 35 15 19 1025.2 1025.3 0.2
16/11:55am 12.0 7.1 10.1 88 1.0 W 26 35 14 19 1025.2 1025.3 0.2
16/11:30am 11.5 6.9 9.8 89 0.9 WSW 24 35 13 19 1025.5 1025.6 0.2
16/11:25am 11.4 6.4 9.7 89 0.9 WSW 26 35 14 19 1025.6 1025.7 0.2
16/11:04am 10.6 5.0 8.7 88 0.9 WSW 28 37 15 20 1026.0 1026.1 0.0
16/11:00am 10.8 5.2 8.9 88 0.9 WSW 28 37 15 20 1026.0 1026.1 0.0
16/10:57am 10.8 5.6 8.9 88 0.9 WSW 26 37 14 20 1026.0 1026.1 0.0
16/10:43am 10.7 5.8 8.6 87 1.0 WSW 24 32 13 17 1026.0 1026.1 0.0
16/10:30am 10.6 5.3 8.5 87 1.0 WSW 26 39 14 21 1026.0 1026.1 0.0
16/10:26am 10.8 6.3 8.7 87 1.0 WSW 22 39 12 21 1025.9 1026.0 0.0
16/10:10am 10.4 5.0 8.2 86 1.1 WSW 26 43 14 23 1025.9 1026.0 0.0
16/10:00am 10.2 5.1 7.8 85 1.2 WSW 24 33 13 18 1025.8 1025.9 0.0
16/09:57am 10.3 5.3 7.9 85 1.2 WSW 24 33 13 18 1025.8 1025.9 0.0
16/09:30am 10.4 5.6 7.5 82 1.4 WSW 22 35 12 19 1025.6 1025.7 0.0
16/09:00am 10.0 4.8 7.3 83 1.3 WSW 24 33 13 18 1025.4 1025.5 2.8
16/08:30am 10.5 5.6 7.0 79 1.7 WSW 22 30 12 16 1025.0 1025.2 2.8
16/08:00am 10.2 4.5 6.7 79 1.6 WSW 26 33 14 18 1025.2 1025.3 2.8
16/07:30am 10.2 4.7 7.4 83 1.3 WSW 26 35 14 19 1025.0 1025.2 2.8
16/07:00am 10.1 5.9 8.2 88 0.9 SW 20 33 11 18 1024.7 1024.9 2.8
16/06:30am 10.4 4.4 8.5 88 0.9 WSW 30 39 16 21 1024.5 1024.7 2.8
16/06:00am 10.1 4.8 8.5 90 0.8 WSW 26 37 14 20 1024.5 1024.7 2.8
16/05:54am 9.8 4.8 8.2 90 0.8 WSW 24 37 13 20 1024.5 1024.7 2.8
16/05:34am 10.0 4.7 8.6 91 0.7 WSW 26 39 14 21 1024.4 1024.6 2.8
16/05:30am 10.2 5.8 8.8 91 0.7 WSW 22 32 12 17 1024.3 1024.5 2.8
16/05:14am 10.4 4.9 9.0 91 0.7 WSW 28 37 15 20 1024.2 1024.4 2.6
16/05:10am 10.4 5.2 9.0 91 0.7 WSW 26 39 14 21 1024.2 1024.4 2.6
16/05:06am 10.3 5.1 8.9 91 0.7 WSW 26 39 14 21 1024.1 1024.3 2.6
16/05:00am 9.9 4.2 8.5 91 0.7 WSW 28 39 15 21 1024.2 1024.4 2.6
16/04:48am 10.3 4.4 8.9 91 0.7 WSW 30 43 16 23 1024.2 1024.4 2.6
16/04:40am 10.1 4.1 8.7 91 0.7 WSW 30 43 16 23 1024.0 1024.2 2.4
16/04:39am 10.1 3.7 8.7 91 0.7 WSW 32 48 17 26 1024.1 1024.3 2.4
16/04:30am 10.2 4.2 8.8 91 0.7 WSW 30 48 16 26 1024.1 1024.3 2.4
16/04:29am 10.3 4.7 8.9 91 0.7 WSW 28 46 15 25 1024.0 1024.2 2.4
16/04:16am 10.6 5.1 9.2 91 0.7 WSW 28 41 15 22 1024.4 1024.6 2.2
16/04:06am 10.5 5.4 9.1 91 0.7 WSW 26 33 14 18 1024.3 1024.5 2.2
16/04:00am 10.5 5.8 9.1 91 0.7 WSW 24 33 13 18 1024.3 1024.5 2.2
16/03:48am 10.5 4.6 9.1 91 0.7 WSW 30 44 16 24 1024.2 1024.4 2.2
16/03:30am 10.3 5.5 8.9 91 0.7 WSW 24 33 13 18 1024.1 1024.3 2.2
16/03:18am 10.2 5.0 8.8 91 0.7 WSW 26 41 14 22 1024.2 1024.4 2.2
16/03:01am 10.5 4.6 9.1 91 0.7 WSW 30 41 16 22 1024.3 1024.5 2.2
16/03:00am 10.5 4.6 9.1 91 0.7 WSW 30 41 16 22 1024.3 1024.5 2.2
16/02:41am 10.5 5.4 9.1 91 0.7 WSW 26 35 14 19 1024.6 1024.8 1.6
16/02:36am 10.6 5.1 9.2 91 0.7 WSW 28 39 15 21 1024.6 1024.8 1.6
16/02:30am 10.4 4.1 9.0 91 0.7 WSW 32 39 17 21 1024.6 1024.8 1.6
16/02:12am 10.7 6.0 9.3 91 0.7 WSW 24 32 13 17 1024.5 1024.7 1.6
16/02:05am 10.5 5.4 9.1 91 0.7 WSW 26 35 14 19 1024.5 1024.7 1.6
16/02:00am 10.4 4.5 9.0 91 0.7 WSW 30 46 16 25 1024.5 1024.7 1.6
16/01:52am 10.6 5.2 9.4 92 0.6 WSW 28 46 15 25 1024.5 1024.7 1.6
16/01:32am 10.5 5.4 9.3 92 0.6 W 26 35 14 19 1024.8 1025.0 1.6
16/01:30am 10.5 5.4 9.3 92 0.6 W 26 35 14 19 1024.8 1025.0 1.6
16/01:01am 10.6 5.9 9.2 91 0.7 WSW 24 32 13 17 1025.3 1025.4 1.4
16/01:00am 10.6 5.9 9.2 91 0.7 WSW 24 32 13 17 1025.3 1025.4 1.4
16/12:58am 10.6 6.3 9.2 91 0.7 WSW 22 32 12 17 1025.3 1025.4 1.4
16/12:51am 10.3 5.5 8.9 91 0.7 WSW 24 35 13 19 1025.3 1025.4 1.4
16/12:31am 10.7 5.6 9.3 91 0.7 WSW 26 33 14 18 1025.3 1025.4 1.4
16/12:30am 10.7 5.6 9.3 91 0.7 WSW 26 33 14 18 1025.3 1025.4 1.4
16/12:27am 10.6 5.9 9.2 91 0.7 W 24 35 13 19 1025.2 1025.3 1.2
16/12:15am 10.6 5.5 9.2 91 0.7 WSW 26 35 14 19 1025.5 1025.6 1.2
16/12:14am 10.6 5.5 9.2 91 0.7 WSW 26 35 14 19 1025.4 1025.5 1.2
16/12:13am 10.6 5.5 9.2 91 0.7 WSW 26 35 14 19 1025.5 1025.6 1.2
16/12:03am 10.6 5.9 9.2 91 0.7 WSW 24 33 13 18 1025.5 1025.6 1.2
16/12:00am 10.6 5.5 9.2 91 0.7 WSW 26 33 14 18 1025.5 1025.6 1.2
 
Date/Time
EST
Temp
°C
App
Temp
°C
Dew
Point
°C
Rel
Hum
%
Delta-T
°C
Wind Press
QNH
hPa
Press
MSL
hPa
Rain since
9am
mm
Dir  Spd
km/h
Gust
km/h
Spd
kts
Gust
kts
15/11:43pm 10.6 5.1 9.2 91 0.7 WSW 28 35 15 19 1025.6 1025.7 1.2
15/11:42pm 10.6 5.1 9.2 91 0.7 W 28 35 15 19 1025.6 1025.7 1.2
15/11:30pm 10.7 5.6 9.3 91 0.7 W 26 35 14 19 1025.6 1025.7 1.2
15/11:28pm 10.8 5.8 9.4 91 0.7 WSW 26 35 14 19 1025.6 1025.7 1.2
15/11:06pm 10.7 6.8 9.3 91 0.7 WSW 20 32 11 17 1025.6 1025.7 1.2
15/11:00pm 10.7 6.0 9.3 91 0.7 WSW 24 39 13 21 1025.6 1025.7 1.2
15/10:55pm 10.8 6.1 9.4 91 0.7 WSW 24 39 13 21 1025.6 1025.7 1.2
15/10:50pm 10.8 6.5 9.4 91 0.7 WSW 22 30 12 16 1025.6 1025.7 1.2
15/10:35pm 10.9 6.6 9.5 91 0.7 WSW 22 35 12 19 1025.8 1025.9 1.0
15/10:34pm 10.9 6.6 9.5 91 0.7 WSW 22 35 12 19 1025.7 1025.8 1.0
15/10:30pm 10.8 6.9 9.4 91 0.7 WSW 20 28 11 15 1025.7 1025.8 1.0
15/10:29pm 10.8 6.9 9.4 91 0.7 WSW 20 28 11 15 1025.7 1025.8 1.0
15/10:14pm 10.8 6.9 9.4 91 0.7 WSW 20 33 11 18 1025.7 1025.8 1.0
15/10:12pm 10.8 6.9 9.4 91 0.7 WSW 20 26 11 14 1025.7 1025.8 1.0
15/10:00pm 10.6 5.9 9.2 91 0.7 WSW 24 33 13 18 1025.7 1025.8 1.0
15/09:46pm 11.0 6.0 9.6 91 0.7 WSW 26 35 14 19 1025.8 1025.9 1.0
15/09:30pm 11.0 7.3 9.6 91 0.7 WSW 19 24 10 13 1025.9 1026.0 1.0
15/09:24pm 10.9 6.6 9.5 91 0.7 WSW 22 35 12 19 1025.9 1026.0 1.0
15/09:19pm 10.9 6.3 9.5 91 0.7 WSW 24 35 13 19 1025.9 1026.0 1.0
15/09:18pm 10.9 6.3 9.5 91 0.7 WSW 24 35 13 19 1025.9 1026.0 1.0
15/09:00pm 11.0 7.1 9.6 91 0.7 WSW 20 28 11 15 1026.0 1026.1 0.8
15/08:46pm 11.1 6.1 9.7 91 0.7 WSW 26 35 14 19 1026.0 1026.1 0.8
15/08:38pm 11.0 6.4 9.6 91 0.7 WSW 24 35 13 19 1026.1 1026.2 0.8
15/08:30pm 10.9 5.9 9.5 91 0.7 WSW 26 39 14 21 1026.1 1026.2 0.8
15/08:24pm 11.1 6.5 9.7 91 0.7 WSW 24 35 13 19 1026.1 1026.2 0.8
15/08:22pm 11.2 7.0 9.8 91 0.7 WSW 22 35 12 19 1026.1 1026.2 0.8
15/08:00pm 11.2 5.9 9.8 91 0.7 WSW 28 37 15 20 1026.2 1026.3 0.8
15/07:30pm 11.3 6.0 9.9 91 0.7 WSW 28 43 15 23 1025.9 1026.0 0.8
15/07:00pm 11.5 6.3 10.1 91 0.7 WSW 28 35 15 19 1025.8 1025.9 0.6
15/06:40pm 11.5 7.0 10.1 91 0.7 WSW 24 33 13 18 1025.8 1025.9 0.6
15/06:30pm 11.6 6.8 10.2 91 0.7 WSW 26 32 14 17 1025.7 1025.8 0.6
15/06:00pm 11.6 6.8 10.2 91 0.7 WSW 26 35 14 19 1025.6 1025.7 0.6
15/05:31pm 11.4 6.5 10.0 91 0.7 WSW 26 39 14 21 1025.0 1025.2 0.6
15/05:30pm 11.4 6.1 10.0 91 0.7 WSW 28 41 15 22 1025.2 1025.3 0.6
15/05:07pm 11.6 7.1 10.2 91 0.7 WSW 24 39 13 21 1025.2 1025.3 0.6
15/05:00pm 11.6 6.8 10.2 91 0.7 WSW 26 37 14 20 1025.2 1025.3 0.6
15/04:30pm 11.7 6.5 10.3 91 0.7 WSW 28 37 15 20 1024.9 1025.1 0.6
15/04:26pm 11.7 6.9 10.3 91 0.7 WSW 26 37 14 20 1024.9 1025.1 0.6
15/04:03pm 12.0 7.3 10.6 91 0.7 W 26 33 14 18 1024.6 1024.8 0.6
15/04:00pm 12.0 7.3 10.6 91 0.7 W 26 35 14 19 1024.7 1024.9 0.6
15/03:30pm 11.8 6.6 10.4 91 0.7 WSW 28 41 15 22 1024.6 1024.8 0.6
15/03:29pm 11.9 6.8 10.5 91 0.7 WSW 28 37 15 20 1024.5 1024.7 0.6
15/03:00pm 12.0 6.5 10.4 90 0.8 W 30 43 16 23 1024.6 1024.8 0.2
15/02:30pm 11.8 5.6 10.0 89 0.9 W 33 44 18 24 1024.4 1024.6 0.2
15/02:00pm 11.9 5.3 10.0 88 1.0 W 35 44 19 24 1024.2 1024.4 0.2
15/01:47pm 12.1 6.1 10.0 87 1.1 W 32 41 17 22 1024.3 1024.5 0.2
15/01:30pm 12.4 6.4 10.1 86 1.2 W 32 41 17 22 1024.3 1024.5 0.2
15/01:00pm 12.3 6.1 10.0 86 1.2 W 33 44 18 24 1024.5 1024.7 0.2
15/12:57pm 12.1 5.8 9.8 86 1.2 W 33 44 18 24 1024.5 1024.7 0.2
15/12:40pm 12.3 6.2 9.9 85 1.2 W 32 44 17 24 1024.8 1025.0 0.2
15/12:30pm 12.4 7.1 9.8 84 1.3 WSW 28 41 15 22 1024.9 1025.1 0.2
15/12:00pm 12.9 7.7 10.4 85 1.3 WSW 28 37 15 20 1025.2 1025.3 0.2
15/11:42am 12.6 7.0 10.3 86 1.2 WSW 30 39 16 21 1025.2 1025.3 0.2
15/11:35am 12.4 7.2 10.1 86 1.2 WSW 28 35 15 19 1025.2 1025.3 0.2
15/11:30am 12.8 7.7 10.5 86 1.2 WSW 28 39 15 21 1025.3 1025.4 0.2
15/11:00am 12.0 7.9 10.1 88 1.0 SW 22 30 12 16 1025.4 1025.5 0.2
15/10:30am 11.4 7.5 9.5 88 1.0 SW 20 28 11 15 1025.6 1025.7 0.2
15/10:19am 11.2 7.3 9.3 88 1.0 SW 20 28 11 15 1025.6 1025.7 0.2
15/10:14am 11.4 7.7 9.5 88 1.0 SW 19 30 10 16 1025.7 1025.8 0.2
15/10:00am 11.3 7.4 9.4 88 1.0 SW 20 28 11 15 1025.6 1025.7 0.0
15/09:53am 11.1 7.1 9.2 88 1.0 SW 20 35 11 19 1025.5 1025.6 0.0
15/09:51am 11.1 7.1 9.0 87 1.0 SW 20 35 11 19 1025.5 1025.6 0.0
15/09:30am 11.0 7.0 8.9 87 1.0 SW 20 30 11 16 1025.3 1025.4 0.0
15/09:00am 10.6 5.8 8.7 88 0.9 SW 24 32 13 17 1024.9 1025.1 1.6
15/08:31am 10.3 6.1 8.2 87 1.0 SW 20 28 11 15 1024.7 1024.9 1.6
15/08:30am 10.3 5.7 8.2 87 1.0 SW 22 32 12 17 1024.6 1024.8 1.6
15/08:27am 10.4 5.5 8.3 87 1.0 SW 24 33 13 18 1024.6 1024.8 1.6
15/08:16am 10.2 5.2 8.1 87 1.0 SW 24 39 13 21 1024.6 1024.8 1.6
15/08:14am 10.4 5.8 8.3 87 1.0 SW 22 33 12 18 1024.6 1024.8 1.6
15/08:00am 10.3 6.1 8.1 86 1.1 SW 20 26 11 14 1024.5 1024.7 1.6
15/07:30am 10.3 6.0 7.7 84 1.3 SW 20 33 11 18 1024.1 1024.3 1.6
15/07:00am 9.9 4.3 7.2 83 1.3 SW 26 39 14 21 1023.7 1023.9 1.6
15/06:30am 10.3 5.6 7.9 85 1.2 SW 22 30 12 16 1023.4 1023.6 1.6
15/06:00am 10.1 5.8 7.9 86 1.1 SW 20 30 11 16 1023.2 1023.4 1.6
15/05:30am 9.9 5.8 7.7 86 1.1 SW 19 28 10 15 1022.8 1023.0 1.4
15/05:21am 9.7 5.5 7.3 85 1.1 SW 19 30 10 16 1022.8 1023.0 1.4
15/05:05am 10.1 5.0 7.5 84 1.2 SW 24 35 13 19 1022.7 1022.9 1.4
15/05:00am 10.3 5.6 7.7 84 1.2 SW 22 35 12 19 1022.5 1022.7 1.4
15/04:30am 10.1 4.2 7.5 84 1.2 SW 28 52 15 28 1022.4 1022.6 1.4
15/04:00am 10.3 5.3 8.1 86 1.1 SW 24 41 13 22 1022.0 1022.2 1.4
15/03:30am 9.8 4.6 7.4 85 1.1 SW 24 37 13 20 1022.0 1022.2 1.4
15/03:00am 10.2 5.4 7.4 83 1.3 SW 22 41 12 22 1021.9 1022.1 1.4
15/02:47am 9.7 4.5 7.1 84 1.2 SW 24 43 13 23 1022.0 1022.2 1.4
15/02:31am 10.0 3.9 6.7 80 1.6 SW 28 57 15 31 1022.2 1022.4 1.4
15/02:30am 10.1 4.4 6.6 79 1.6 SW 26 57 14 31 1022.2 1022.4 1.4
15/02:00am 9.9 4.6 7.0 82 1.4 SW 24 37 13 20 1021.8 1022.0 1.0
15/01:34am 10.7 4.3 7.0 78 1.8 SW 30 54 16 29 1021.6 1021.8 0.8
15/01:30am 10.6 4.6 6.9 78 1.8 SW 28 41 15 22 1021.6 1021.8 0.8
15/01:04am 10.8 4.3 6.7 76 1.9 SW 30 48 16 26 1021.5 1021.7 0.8
15/01:00am 10.8 4.0 6.7 76 1.9 SW 32 48 17 26 1021.5 1021.7 0.8
15/12:30am 10.9 4.2 7.2 78 1.8 SW 32 54 17 29 1021.3 1021.5 0.8
15/12:05am 10.1 2.5 5.9 75 1.9 SW 35 54 19 29 1021.3 1021.5 0.8
15/12:00am 10.9 3.3 5.9 71 2.3 SW 35 50 19 27 1021.3 1021.5 0.8
 
Date/Time
EST
Temp
°C
App
Temp
°C
Dew
Point
°C
Rel
Hum
%
Delta-T
°C
Wind Press
QNH
hPa
Press
MSL
hPa
Rain since
9am
mm
Dir  Spd
km/h
Gust
km/h
Spd
kts
Gust
kts
14/11:54pm 10.8 3.8 5.8 71 2.3 SW 32 50 17 27 1021.3 1021.5 0.8
14/11:30pm 10.8 3.7 6.6 75 2.0 WSW 33 48 18 26 1021.1 1021.2 0.8
14/11:00pm 10.5 2.7 6.6 77 1.8 WSW 37 56 20 30 1021.1 1021.2 0.8
14/10:37pm 9.9 2.4 6.4 79 1.6 SW 35 54 19 29 1021.0 1021.1 0.8
14/10:30pm 10.3 2.1 6.5 77 1.8 WSW 39 54 21 29 1021.3 1021.5 0.8
14/10:00pm 10.2 2.7 6.2 76 1.9 WSW 35 52 19 28 1021.2 1021.3 0.8
14/09:41pm 10.3 2.8 6.1 75 2.0 WSW 35 54 19 29 1021.0 1021.1 0.8
14/09:30pm 11.0 2.0 6.4 73 2.2 WSW 43 57 23 31 1020.8 1020.9 0.8
14/09:00pm 11.0 2.8 6.4 73 2.2 WSW 39 59 21 32 1020.9 1021.0 0.8
14/08:30pm 11.1 2.7 5.8 70 2.5 WSW 39 59 21 32 1020.7 1020.8 0.8
14/08:00pm 10.9 1.6 5.9 71 2.3 WSW 44 69 24 37 1020.6 1020.7 0.8
14/07:37pm 11.1 1.7 5.6 69 2.5 WSW 44 63 24 34 1020.6 1020.7 0.8
14/07:30pm 11.1 1.3 5.4 68 2.6 WSW 46 63 25 34 1020.4 1020.5 0.8
14/07:00pm 11.0 1.3 5.7 70 2.5 WSW 46 65 25 35 1020.1 1020.2 0.8
14/06:30pm 11.1 1.9 5.6 69 2.5 WSW 43 61 23 33 1019.6 1019.7 0.8
14/06:00pm 10.0 1.0 6.3 78 1.7 W 43 61 23 33 1019.9 1020.0 0.8
14/05:30pm 10.3 1.3 6.6 78 1.7 WSW 43 61 23 33 1019.9 1020.0 0.8
14/05:00pm 10.9 1.2 5.7 70 2.4 WSW 46 69 25 37 1020.0 1020.1 0.6
14/04:30pm 10.9 0.8 5.9 71 2.3 W 48 69 26 37 1019.3 1019.4 0.6
14/04:06pm 11.3 2.3 6.6 73 2.2 WSW 43 61 23 33 1019.3 1019.4 0.6
14/04:00pm 10.9 1.3 6.3 73 2.2 WSW 46 61 25 33 1019.5 1019.6 0.6
14/03:44pm 11.2 2.5 5.9 70 2.5 WSW 41 59 22 32 1019.5 1019.6 0.6
14/03:30pm 11.5 1.9 6.2 70 2.5 WSW 46 63 25 34 1019.5 1019.6 0.6
14/03:00pm 11.2 1.6 6.3 72 2.3 W 46 70 25 38 1019.6 1019.7 0.6
14/02:30pm 11.1 1.6 6.6 74 2.1 W 46 65 25 35 1019.2 1019.3 0.6
14/02:00pm 11.7 2.4 7.6 76 2.0 W 46 65 25 35 1018.9 1019.0 0.6
14/01:57pm 11.4 2.6 7.3 76 2.0 W 43 61 23 33 1019.0 1019.1 0.6
14/01:30pm 11.4 2.1 7.7 78 1.8 WSW 46 61 25 33 1019.3 1019.4 0.6
14/01:06pm 11.4 3.0 8.8 84 1.3 W 43 61 23 33 1019.6 1019.7 0.6
14/01:00pm 11.2 2.2 8.8 85 1.2 WSW 46 57 25 31 1019.7 1019.8 0.6
14/12:39pm 11.0 2.4 8.9 87 1.0 W 44 61 24 33 1019.9 1020.0 0.6
14/12:36pm 11.0 2.6 8.8 86 1.1 W 43 61 23 33 1019.9 1020.0 0.6
14/12:35pm 11.0 2.6 8.8 86 1.1 W 43 61 23 33 1019.8 1019.9 0.6
14/12:30pm 11.0 2.6 8.8 86 1.1 W 43 56 23 30 1019.9 1020.0 0.6
14/12:19pm 10.5 1.4 8.3 86 1.1 W 46 65 25 35 1020.0 1020.1 0.6
14/12:18pm 10.7 1.6 8.5 86 1.1 W 46 65 25 35 1020.1 1020.2 0.6
14/12:01pm 10.8 1.6 8.2 84 1.3 W 46 69 25 37 1020.0 1020.1 0.6
14/12:00pm 10.9 2.2 8.3 84 1.3 W 44 69 24 37 1020.2 1020.3 0.6
14/11:51am 12.0 4.1 9.2 83 1.4 W 41 59 22 32 1020.3 1020.4 0.4
14/11:43am 11.5 2.7 8.2 80 1.6 W 44 61 24 33 1020.3 1020.4 0.4
14/11:30am 12.7 3.1 8.0 73 2.3 W 48 65 26 35 1020.3 1020.4 0.2
14/11:13am 12.6 4.0 8.3 75 2.1 W 43 63 23 34 1020.5 1020.6 0.2
14/11:00am 12.4 3.8 8.1 75 2.1 W 43 57 23 31 1020.6 1020.7 0.2
14/10:40am 12.0 3.9 8.7 80 1.6 W 41 59 22 32 1020.8 1020.9 0.2
14/10:30am 11.4 2.5 7.5 77 1.9 WSW 44 56 24 30 1020.7 1020.8 0.2
14/10:00am 11.1 1.9 8.1 82 1.5 WSW 46 65 25 35 1020.6 1020.7 0.2
14/09:30am 10.6 1.4 8.0 84 1.3 WSW 46 65 25 35 1020.6 1020.7 0.2
14/09:16am 10.8 2.1 8.6 86 1.1 WSW 44 69 24 37 1020.7 1020.8 0.2
14/09:03am 9.9 1.6 7.8 87 1.0 WSW 41 59 22 32 1020.5 1020.6 0.0
14/09:00am 9.9 1.6 7.8 87 1.0 WSW 41 59 22 32 1020.6 1020.7 3.6
14/08:37am 9.9 -0.6 7.5 85 1.1 W 52 70 28 38 1020.6 1020.7 3.2
14/08:30am 10.3 0.6 7.4 82 1.4 W 48 69 26 37 1020.3 1020.4 2.8
14/08:25am 10.3 1.2 7.0 80 1.6 W 44 63 24 34 1020.2 1020.3 2.6
14/08:23am 10.5 1.6 7.0 79 1.7 W 43 56 23 30 1020.3 1020.4 2.4
14/08:00am 10.8 1.6 6.4 74 2.1 W 44 72 24 39 1020.2 1020.3 2.4
14/07:30am 11.1 1.8 6.0 71 2.4 W 44 65 24 35 1020.2 1020.3 2.2
14/07:00am 10.7 1.0 5.7 71 2.3 W 46 69 25 37 1020.3 1020.4 2.2
14/06:30am 11.0 0.5 5.5 69 2.5 W 50 72 27 39 1020.1 1020.2 2.2
14/06:04am 10.7 1.5 6.5 75 2.0 W 44 67 24 36 1020.3 1020.4 2.2
14/06:00am 10.6 1.4 6.4 75 2.0 WSW 44 57 24 31 1020.4 1020.5 2.2
14/05:34am 10.2 1.0 6.2 76 1.9 W 44 63 24 34 1020.3 1020.4 2.2
14/05:30am 10.2 0.2 6.2 76 1.9 W 48 63 26 34 1020.3 1020.4 2.2
14/05:12am 10.2 0.7 6.9 80 1.6 W 46 67 25 36 1020.0 1020.1 2.2
14/05:00am 10.5 1.1 7.2 80 1.6 W 46 61 25 33 1020.2 1020.3 2.2

Other formats

Comma delimited format used in spreadsheet applications
http://www.bom.gov.au/fwo/IDV60801/IDV60801.94828.axf

JavaScript Object Notation format (JSON) in row-major order
http://www.bom.gov.au/fwo/IDV60801/IDV60801.94828.json

Data quality

Most of these data are generated automatically and are frequently updated. Quality checks on data are not normally performed. It is possible for incorrect values to appear. Refer to information at About Latest Weather Observations and please check the disclaimer before using these data.